Time;durP1;ratioP1;P1;durP2;ratioP2;P2;SDS_P1;SDS_P2;PMS_P1;PMS_P2;Temp;Humidity;BMP_temperature;BMP_pressure;BME280_temperature;BME280_humidity;BME280_pressure;Samples;Min_cycle;Max_cycle;Signal;HPM_P1;HPM_P2
2023/03/03 00:02:14;;;;;;;0.10;0.10;;;;;;;-1.04;80.08;98365.97;4990804;28;20144;-72
2023/03/03 00:04:41;;;;;;;0.10;0.10;;;;;;;-1.02;80.37;98358.50;5025422;28;20107;-72
2023/03/03 00:07:07;;;;;;;0.10;0.10;;;;;;;-1.01;80.11;98360.97;5027105;28;20049;-72
2023/03/03 00:09:33;;;;;;;0.10;0.10;;;;;;;-1.00;80.38;98356.44;5023960;28;20225;-72
2023/03/03 00:12:02;;;;;;;0.10;0.10;;;;;;;-1.00;80.35;98345.69;4989927;28;20152;-72
2023/03/03 00:14:30;;;;;;;0.10;0.10;;;;;;;-0.97;80.61;98344.41;5010142;28;20077;-72
2023/03/03 00:17:00;;;;;;;0.10;0.10;;;;;;;-0.92;80.43;98339.16;5003485;28;20049;-72
2023/03/03 00:19:36;;;;;;;0.10;0.10;;;;;;;-0.92;80.71;98339.16;5006547;28;20084;-72
2023/03/03 00:22:15;;;;;;;0.30;0.30;;;;;;;-0.95;81.13;98327.03;4991462;28;20079;-71
2023/03/03 00:24:41;;;;;;;0.10;0.10;;;;;;;-0.91;81.20;98332.75;5009041;28;20653;-72
2023/03/03 00:27:16;;;;;;;0.10;0.10;;;;;;;-0.89;81.25;98327.94;5009998;28;20049;-72
2023/03/03 00:29:47;;;;;;;0.10;0.10;;;;;;;-0.89;81.32;98327.94;5025269;28;20076;-71
2023/03/03 00:32:22;;;;;;;0.10;0.10;;;;;;;-0.82;81.08;98320.56;5009261;28;20045;-71
2023/03/03 00:34:51;;;;;;;0.20;0.20;;;;;;;-0.82;81.35;98315.19;5009227;28;20046;-71
2023/03/03 00:37:24;;;;;;;0.10;0.10;;;;;;;-0.82;81.37;98311.72;4988759;28;20069;-71
2023/03/03 00:39:50;;;;;;;0.10;0.10;;;;;;;-0.83;81.61;98307.41;5004612;28;20137;-72
2023/03/03 00:42:18;;;;;;;0.10;0.10;;;;;;;-0.82;81.50;98306.34;4975283;28;20052;-72
2023/03/03 00:44:45;;;;;;;0.10;0.10;;;;;;;-0.80;81.75;98299.66;5005488;28;20056;-72
2023/03/03 00:47:28;;;;;;;0.20;0.20;;;;;;;-0.75;81.98;98296.28;5005832;28;20137;-72
2023/03/03 00:50:16;;;;;;;0.10;0.10;;;;;;;-0.83;82.47;98296.66;4987083;28;20065;-72
2023/03/03 00:52:50;;;;;;;0.10;0.10;;;;;;;-0.83;82.75;98286.72;4994737;28;20049;-71
2023/03/03 00:55:16;;;;;;;0.10;0.10;;;;;;;-0.89;83.35;98285.00;5012341;28;20045;-72
2023/03/03 00:57:42;;;;;;;0.10;0.10;;;;;;;-0.91;83.88;98282.56;4993941;28;20126;-71
2023/03/03 01:00:12;;;;;;;0.20;0.20;;;;;;;-0.89;84.25;98277.75;5009724;28;20119;-71
2023/03/03 01:02:37;;;;;;;;;;;;;;;-0.91;84.46;98273.69;5006657;28;20496;-71
2023/03/03 01:05:05;;;;;;;0.10;0.10;;;;;;;-0.97;84.26;98269.25;5008984;28;20012;-72
2023/03/03 01:07:32;;;;;;;0.10;0.10;;;;;;;-1.04;83.90;98253.28;5023556;28;20050;-71
2023/03/03 01:09:58;;;;;;;0.20;0.20;;;;;;;-0.92;83.94;98274.75;5010037;28;20061;-71
2023/03/03 01:12:24;;;;;;;0.10;0.10;;;;;;;-0.86;83.42;98271.09;4992107;28;20108;-71
2023/03/03 01:14:51;;;;;;;0.10;0.10;;;;;;;-0.83;83.12;98265.25;5005328;28;20058;-69
2023/03/03 01:17:18;;;;;;;0.15;0.15;;;;;;;-0.79;82.77;98266.41;5025049;28;20052;-69
2023/03/03 01:19:45;;;;;;;0.10;0.10;;;;;;;-0.77;82.72;98261.66;5008065;28;20041;-69
2023/03/03 01:22:12;;;;;;;0.10;0.10;;;;;;;-0.74;82.73;98254.97;5024876;28;20144;-70
2023/03/03 01:24:38;;;;;;;0.10;0.10;;;;;;;-0.77;83.07;98261.66;4991938;28;20041;-70
2023/03/03 01:27:04;;;;;;;0.10;0.10;;;;;;;-0.81;83.33;98259.66;5023778;28;20041;-69
2023/03/03 01:29:30;;;;;;;0.15;0.15;;;;;;;-0.78;83.62;98256.50;5023673;28;20379;-70
2023/03/03 01:31:56;;;;;;;0.13;0.13;;;;;;;-0.82;83.89;98272.25;5022020;28;20077;-70
2023/03/03 01:34:22;;;;;;;0.10;0.10;;;;;;;-0.87;85.97;98259.53;5025189;28;20045;-69
2023/03/03 01:36:49;;;;;;;0.10;0.10;;;;;;;-1.02;87.53;98249.31;5023247;28;20041;-68
2023/03/03 01:39:16;;;;;;;0.15;0.15;;;;;;;-1.13;88.86;98249.38;5024952;28;20060;-69
2023/03/03 01:41:42;;;;;;;0.10;0.10;;;;;;;-1.12;89.71;98265.19;5027473;28;20068;-68
2023/03/03 01:44:16;;;;;;;0.10;0.10;;;;;;;-1.16;89.59;98245.28;5010058;28;20045;-69
2023/03/03 01:46:54;;;;;;;0.10;0.10;;;;;;;-1.10;89.61;98252.38;5023382;28;20073;-69
2023/03/03 01:49:23;;;;;;;0.10;0.10;;;;;;;-1.13;89.52;98236.75;5008260;28;20517;-69
2023/03/03 01:51:53;;;;;;;0.10;0.10;;;;;;;-0.98;88.75;98251.53;4991564;28;20140;-68
2023/03/03 01:54:27;;;;;;;0.10;0.10;;;;;;;-0.97;88.36;98248.63;4991977;28;20278;-71
2023/03/03 01:56:56;;;;;;;0.10;0.10;;;;;;;-1.06;87.95;98237.44;4996899;28;20052;-71
2023/03/03 01:59:27;;;;;;;0.10;0.10;;;;;;;-0.95;87.79;98249.19;4989560;28;20054;-71
2023/03/03 02:01:54;;;;;;;0.20;0.20;;;;;;;-0.94;87.54;98245.47;4988723;28;20053;-71
2023/03/03 02:04:20;;;;;;;0.10;0.10;;;;;;;-1.01;87.69;98234.84;4987962;28;20105;-71
2023/03/03 02:06:51;;;;;;;0.10;0.10;;;;;;;-0.97;87.77;98240.56;5008030;28;20049;-70
2023/03/03 02:09:26;;;;;;;0.10;0.10;;;;;;;-0.96;88.11;98242.19;5006090;28;20084;-71
2023/03/03 02:11:57;;;;;;;0.10;0.10;;;;;;;-0.95;88.17;98233.09;5004116;28;20046;-71
2023/03/03 02:14:25;;;;;;;0.10;0.10;;;;;;;-0.92;87.91;98239.88;4967920;28;20504;-71
2023/03/03 02:16:52;;;;;;;0.20;0.20;;;;;;;-0.90;87.38;98235.06;4988047;28;20053;-70
2023/03/03 02:19:27;;;;;;;0.10;0.10;;;;;;;-0.87;86.80;98232.72;4988060;28;20108;-70
2023/03/03 02:21:54;;;;;;;0.20;0.20;;;;;;;-0.87;86.35;98213.91;4986249;28;20104;-71
2023/03/03 02:24:29;;;;;;;0.10;0.10;;;;;;;-0.87;86.18;98215.81;5004736;28;20069;-71
2023/03/03 02:26:56;;;;;;;0.20;0.20;;;;;;;-0.86;85.88;98217.44;5005890;28;20296;-71
2023/03/03 02:29:22;;;;;;;;;;;;;;;-0.83;85.60;98200.84;4986602;28;20092;-71
2023/03/03 02:31:48;;;;;;;0.10;0.10;;;;;;;-0.85;85.44;98211.00;4986860;28;19925;-71
2023/03/03 02:34:15;;;;;;;0.10;0.10;;;;;;;-0.86;85.48;98209.38;5019507;28;20132;-71
2023/03/03 02:36:41;;;;;;;0.10;0.10;;;;;;;-0.86;85.42;98198.66;5022415;28;20050;-71
2023/03/03 02:39:12;;;;;;;0.10;0.10;;;;;;;-0.84;85.35;98199.22;5001703;28;20067;-71
2023/03/03 02:41:43;;;;;;;0.10;0.10;;;;;;;-0.84;85.30;98187.69;5006764;28;20065;-71
2023/03/03 02:44:12;;;;;;;0.10;0.10;;;;;;;-0.81;85.14;98196.03;4987483;28;20076;-71
2023/03/03 02:46:41;;;;;;;0.32;0.10;;;;;;;-0.87;88.13;98191.66;4986192;28;20064;-70
2023/03/03 02:49:10;;;;;;;0.13;0.13;;;;;;;-1.04;89.61;98184.34;4987196;28;20143;-71
2023/03/03 02:51:36;;;;;;;0.10;0.10;;;;;;;-1.16;90.58;98179.03;5006332;28;20054;-70
2023/03/03 02:54:05;;;;;;;0.10;0.10;;;;;;;-1.27;91.66;98185.25;5006006;28;20049;-71
2023/03/03 02:56:33;;;;;;;0.20;0.20;;;;;;;-1.38;92.22;98173.50;5024404;28;20053;-70
2023/03/03 02:58:59;;;;;;;0.10;0.10;;;;;;;-1.39;92.64;98171.88;5022406;28;20053;-70
2023/03/03 03:01:30;;;;;;;0.10;0.10;;;;;;;-1.34;92.66;98173.81;5003574;28;20049;-71
2023/03/03 03:03:57;;;;;;;0.20;0.20;;;;;;;-1.30;92.60;98186.53;5004538;28;20139;-70
2023/03/03 03:06:23;;;;;;;0.10;0.10;;;;;;;-1.25;92.75;98182.31;5007526;28;20049;-70
2023/03/03 03:08:49;;;;;;;0.10;0.10;;;;;;;-1.20;92.08;98172.50;4989796;28;20049;-70
2023/03/03 03:11:15;;;;;;;0.20;0.20;;;;;;;-1.12;91.40;98162.47;5020763;28;20060;-71
2023/03/03 03:13:41;;;;;;;0.10;0.10;;;;;;;-1.10;90.97;98163.84;5021485;28;20084;-71
2023/03/03 03:16:08;;;;;;;0.10;0.10;;;;;;;-1.01;90.27;98164.28;5024303;28;20054;-71
2023/03/03 03:18:35;;;;;;;0.10;0.10;;;;;;;-1.02;89.51;98166.16;5007959;28;20053;-71
2023/03/03 03:21:06;;;;;;;0.10;0.10;;;;;;;-0.96;88.86;98166.25;5020805;28;20073;-71
2023/03/03 03:23:33;;;;;;;0.10;0.10;;;;;;;-0.97;88.96;98169.97;5000185;28;20034;-70
2023/03/03 03:25:59;;;;;;;0.13;0.13;;;;;;;-0.97;89.16;98167.28;5001498;28;20477;-70
2023/03/03 03:28:27;;;;;;;0.10;0.10;;;;;;;-1.03;89.14;98172.56;4993633;28;20472;-71
2023/03/03 03:30:54;;;;;;;0.10;0.10;;;;;;;-1.05;89.55;98174.69;5022725;28;20045;-70
2023/03/03 03:33:21;;;;;;;0.10;0.10;;;;;;;-1.09;90.06;98172.72;5002355;28;20053;-71
2023/03/03 03:35:49;;;;;;;0.10;0.10;;;;;;;-1.11;90.12;98167.56;5003053;28;20129;-69
2023/03/03 03:38:16;;;;;;;0.10;0.10;;;;;;;-1.09;90.54;98165.50;5003018;28;20046;-69
2023/03/03 03:40:43;;;;;;;0.10;0.10;;;;;;;-1.09;90.38;98162.81;4988429;28;20607;-70
2023/03/03 03:43:09;;;;;;;0.10;0.10;;;;;;;-1.04;90.18;98167.44;5003442;28;20046;-69
2023/03/03 03:45:35;;;;;;;0.20;0.20;;;;;;;-0.95;90.17;98178.59;5023231;28;20049;-69
2023/03/03 03:48:03;;;;;;;0.13;0.13;;;;;;;-0.93;89.67;98163.91;5005303;28;20541;-69
2023/03/03 03:50:30;;;;;;;0.10;0.10;;;;;;;-0.91;89.35;98161.78;5007252;28;20512;-68
2023/03/03 03:52:58;;;;;;;0.10;0.10;;;;;;;-1.01;89.18;98161.63;4991961;28;20058;-68
2023/03/03 03:55:24;;;;;;;0.10;0.10;;;;;;;-0.98;89.34;98157.63;4971648;28;20060;-68
2023/03/03 03:57:50;;;;;;;0.10;0.10;;;;;;;-1.01;89.48;98159.72;5024335;28;20083;-68
2023/03/03 04:00:16;;;;;;;0.20;0.20;;;;;;;-0.98;89.78;98163.81;5027849;28;20147;-69
2023/03/03 04:02:48;;;;;;;0.10;0.10;;;;;;;-1.03;89.95;98153.78;5046291;28;20048;-68
2023/03/03 04:05:16;;;;;;;0.20;0.20;;;;;;;-1.03;90.28;98142.22;5020130;28;20073;-69
2023/03/03 04:07:43;;;;;;;0.13;0.13;;;;;;;-1.01;90.37;98148.19;4988045;28;20057;-68
2023/03/03 04:10:11;;;;;;;0.20;0.20;;;;;;;-1.02;89.66;98133.94;4988052;28;20316;-69
2023/03/03 04:12:39;;;;;;;0.10;0.10;;;;;;;-1.01;89.37;98140.94;4999623;28;20072;-69
2023/03/03 04:15:11;;;;;;;0.20;0.20;;;;;;;-0.99;89.25;98143.41;5006815;28;20116;-70
2023/03/03 04:17:38;;;;;;;0.10;0.10;;;;;;;-1.01;89.21;98135.59;4988233;28;20058;-69
2023/03/03 04:20:06;;;;;;;;;;;;;;;-0.94;88.89;98142.66;4995159;28;20085;-68
2023/03/03 04:22:34;;;;;;;0.10;0.10;;;;;;;-0.98;89.14;98136.16;5046477;28;19960;-68
2023/03/03 04:25:03;;;;;;;0.10;0.10;;;;;;;-0.98;89.22;98139.66;5026450;28;20049;-68
2023/03/03 04:27:36;;;;;;;0.20;0.20;;;;;;;-1.01;89.31;98132.09;4993976;28;20053;-70
2023/03/03 04:30:04;;;;;;;0.10;0.10;;;;;;;-1.05;89.33;98139.81;4962991;28;20100;-71
2023/03/03 04:32:32;;;;;;;0.10;0.10;;;;;;;-1.07;89.81;98139.22;5007906;28;20439;-69
2023/03/03 04:35:00;;;;;;;0.10;0.10;;;;;;;-1.16;90.34;98128.06;5007132;28;20060;-68
2023/03/03 04:37:27;;;;;;;0.30;0.30;;;;;;;-1.19;90.71;98128.53;4997938;28;20050;-69
2023/03/03 04:39:53;;;;;;;0.20;0.20;;;;;;;-1.15;91.03;98131.56;5008606;28;20084;-68
2023/03/03 04:42:19;;;;;;;0.10;0.10;;;;;;;-1.16;90.93;98133.44;5008997;28;20055;-69
2023/03/03 04:44:48;;;;;;;0.20;0.20;;;;;;;-1.13;90.69;98134.81;5009441;28;20077;-68
2023/03/03 04:47:14;;;;;;;0.20;0.20;;;;;;;-1.10;90.53;98136.22;4656949;28;10000635;-68
2023/03/03 04:49:40;;;;;;;0.10;0.10;;;;;;;-1.09;89.95;98143.19;4993340;28;20071;-68
2023/03/03 04:52:06;;;;;;;0.20;0.20;;;;;;;-1.08;89.86;98134.09;5017236;28;20116;-68
2023/03/03 04:54:32;;;;;;;0.17;0.17;;;;;;;-1.09;89.91;98135.97;4984591;28;20065;-69
2023/03/03 04:56:59;;;;;;;0.20;0.20;;;;;;;-1.14;89.82;98127.81;4993685;28;20042;-68
2023/03/03 04:59:25;;;;;;;0.20;0.20;;;;;;;-1.12;90.13;98149.84;4652468;28;10000087;-68
2023/03/03 05:01:54;;;;;;;0.10;0.10;;;;;;;-1.12;90.27;98135.63;5014512;28;20481;-68
2023/03/03 05:04:20;;;;;;;0.15;0.15;;;;;;;-1.10;90.24;98141.56;5002700;28;20053;-67
2023/03/03 05:06:46;;;;;;;0.20;0.20;;;;;;;-1.11;90.24;98140.75;5026419;28;20100;-68
2023/03/03 05:09:12;;;;;;;0.10;0.10;;;;;;;-1.12;90.26;98133.75;5009564;28;20307;-68
2023/03/03 05:11:38;;;;;;;0.10;0.10;;;;;;;-1.08;89.88;98132.25;5009236;28;20180;-68
2023/03/03 05:14:04;;;;;;;0.10;0.10;;;;;;;-1.05;89.51;98138.97;5034436;28;20045;-68
2023/03/03 05:16:30;;;;;;;0.10;0.10;;;;;;;-1.04;89.23;98141.44;5013919;28;20057;-68
2023/03/03 05:18:57;;;;;;;0.10;0.10;;;;;;;-1.04;88.90;98137.91;4979861;28;20372;-68
2023/03/03 05:21:23;;;;;;;0.20;0.20;;;;;;;-1.03;88.72;98137.69;5038969;28;20049;-69
2023/03/03 05:23:49;;;;;;;0.20;0.20;;;;;;;-1.04;88.78;98140.59;5046174;28;20103;-68
2023/03/03 05:26:16;;;;;;;0.28;0.20;;;;;;;-1.06;88.78;98142.72;5045046;28;20061;-68
2023/03/03 05:28:42;;;;;;;0.10;0.10;;;;;;;-1.00;89.33;98137.22;5043714;28;20068;-68
2023/03/03 05:31:08;;;;;;;0.10;0.10;;;;;;;-0.97;88.38;98135.94;5004127;28;20034;-68
2023/03/03 05:33:35;;;;;;;0.10;0.10;;;;;;;-1.02;88.37;98135.81;5009335;28;20050;-70
2023/03/03 05:36:03;;;;;;;0.20;0.20;;;;;;;-0.97;88.15;98149.34;5024789;28;20457;-70
2023/03/03 05:38:29;;;;;;;0.20;0.20;;;;;;;-0.99;87.67;98151.44;5021830;28;20540;-68
2023/03/03 05:40:55;;;;;;;0.13;0.13;;;;;;;-0.95;87.16;98147.22;4990568;28;20049;-69
2023/03/03 05:43:21;;;;;;;0.10;0.10;;;;;;;-0.94;86.60;98146.16;4997278;28;20048;-68
2023/03/03 05:45:53;;;;;;;0.10;0.10;;;;;;;-0.90;85.98;98139.25;5010419;28;20096;-68
2023/03/03 05:48:19;;;;;;;0.10;0.10;;;;;;;-0.86;85.85;98140.44;5009163;28;20179;-68
2023/03/03 05:50:45;;;;;;;0.20;0.20;;;;;;;-0.84;85.46;98147.44;4995574;28;20116;-70
2023/03/03 05:53:12;;;;;;;0.20;0.20;;;;;;;-0.89;85.39;98140.09;4995396;28;20042;-70
2023/03/03 05:55:38;;;;;;;0.20;0.20;;;;;;;-0.82;85.54;98145.31;5022284;28;20595;-70
2023/03/03 05:58:04;;;;;;;0.20;0.20;;;;;;;-0.76;85.38;98139.78;5005483;28;20049;-70
2023/03/03 06:00:30;;;;;;;0.20;0.20;;;;;;;-0.79;85.14;98148.31;5020390;28;20104;-70
2023/03/03 06:02:57;;;;;;;0.20;0.20;;;;;;;-0.78;85.01;98141.91;4973927;28;20056;-70
2023/03/03 06:05:23;;;;;;;0.20;0.20;;;;;;;-0.77;84.02;98142.72;4994722;28;20072;-70
2023/03/03 06:07:49;;;;;;;0.10;0.10;;;;;;;-0.83;84.09;98149.06;4991986;28;20050;-70
2023/03/03 06:10:16;;;;;;;0.20;0.20;;;;;;;-0.77;84.06;98145.41;5017174;28;20061;-70
2023/03/03 06:12:47;;;;;;;0.17;0.17;;;;;;;-0.73;83.38;98158.09;5005352;28;20083;-70
2023/03/03 06:15:13;;;;;;;0.20;0.20;;;;;;;-0.70;82.48;98155.97;5005535;28;20084;-70
2023/03/03 06:17:39;;;;;;;0.20;0.20;;;;;;;-0.63;82.34;98145.91;5026094;28;20049;-70
2023/03/03 06:20:06;;;;;;;0.25;0.25;;;;;;;-0.55;81.60;98156.25;5019457;28;20048;-70
2023/03/03 06:22:32;;;;;;;0.20;0.20;;;;;;;-0.51;81.02;98149.34;4996609;28;20837;-70
2023/03/03 06:24:58;;;;;;;0.10;0.10;;;;;;;-0.52;80.41;98157.66;5008629;28;20042;-70
2023/03/03 06:27:26;;;;;;;0.20;0.20;;;;;;;-0.58;80.55;98146.81;4968009;28;20542;-68
2023/03/03 06:29:52;;;;;;;;;;;;;;;-0.58;80.85;98154.84;4997644;28;20112;-68
2023/03/03 06:32:18;;;;;;;0.20;0.20;;;;;;;-0.58;80.63;98154.84;4981112;28;19926;-68
2023/03/03 06:34:44;;;;;;;0.20;0.20;;;;;;;-0.58;80.33;98146.00;4983902;28;20265;-68
2023/03/03 06:37:10;;;;;;;0.20;0.20;;;;;;;-0.55;80.25;98150.06;5029012;28;20136;-68
2023/03/03 06:39:36;;;;;;;0.10;0.10;;;;;;;-0.48;79.79;98148.03;5027196;28;20060;-68
2023/03/03 06:42:02;;;;;;;0.10;0.10;;;;;;;-0.42;79.14;98149.75;4993632;28;20045;-70
2023/03/03 06:44:30;;;;;;;0.17;0.17;;;;;;;-0.40;78.59;98146.81;5018085;28;20303;-70
2023/03/03 06:46:56;;;;;;;0.20;0.20;;;;;;;-0.36;78.54;98142.59;4999123;28;20045;-70
2023/03/03 06:49:23;;;;;;;0.20;0.20;;;;;;;-0.32;78.21;98141.88;5008455;28;20324;-68
2023/03/03 06:51:50;;;;;;;0.10;0.10;;;;;;;-0.26;77.91;98150.81;5015062;28;20123;-68
2023/03/03 06:54:17;;;;;;;0.20;0.20;;;;;;;-0.22;77.64;98146.59;4998973;28;20152;-69
2023/03/03 06:56:44;;;;;;;;;;;;;;;-0.23;77.42;98157.59;5019628;28;20393;-68
2023/03/03 06:59:13;;;;;;;0.20;0.20;;;;;;;-0.16;77.46;98158.22;5042975;28;19925;-68
2023/03/03 07:01:41;;;;;;;0.20;0.20;;;;;;;-0.15;77.08;98149.09;5026181;28;20576;-69
2023/03/03 07:04:21;;;;;;;0.25;0.22;;;;;;;-0.16;77.19;98152.84;5005916;28;20271;-68
2023/03/03 07:06:47;;;;;;;0.17;0.17;;;;;;;-0.11;76.88;98150.22;5018570;28;20046;-68
2023/03/03 07:09:23;;;;;;;0.10;0.10;;;;;;;-0.07;76.38;98156.78;5002750;28;20444;-68
2023/03/03 07:11:50;;;;;;;0.20;0.20;;;;;;;-0.08;76.64;98159.69;5011070;28;20156;-68
2023/03/03 07:14:18;;;;;;;0.10;0.10;;;;;;;0.02;76.61;98170.59;5025731;28;20136;-69
2023/03/03 07:16:46;;;;;;;0.10;0.10;;;;;;;0.01;76.04;98168.97;5025215;28;20422;-69
2023/03/03 07:19:16;;;;;;;;;;;;;;;-0.02;76.17;98164.91;5002569;28;20037;-69
2023/03/03 07:21:42;;;;;;;0.20;0.20;;;;;;;-0.15;75.91;98157.16;5003175;28;21052;-69
2023/03/03 07:24:25;;;;;;;0.20;0.20;;;;;;;-0.15;76.01;98163.38;5033682;28;20108;-70
2023/03/03 07:26:52;;;;;;;0.20;0.20;;;;;;;-0.17;76.28;98167.34;5025196;28;20050;-70
2023/03/03 07:29:25;;;;;;;0.20;0.20;;;;;;;-0.09;76.31;98150.00;5016293;28;20449;-70
2023/03/03 07:31:53;;;;;;;0.22;0.22;;;;;;;0.00;76.01;98167.34;5044230;28;20095;-69
2023/03/03 07:34:29;;;;;;;0.20;0.20;;;;;;;-0.09;75.56;98166.91;5039070;28;20051;-68
2023/03/03 07:37:00;;;;;;;0.20;0.20;;;;;;;-0.21;76.13;98169.69;5010602;28;20057;-69
2023/03/03 07:39:33;;;;;;;0.20;0.20;;;;;;;-0.20;75.73;98160.56;5010395;28;20041;-68
2023/03/03 07:42:14;;;;;;;0.20;0.20;;;;;;;-0.18;75.33;98174.56;5033140;28;20057;-68
2023/03/03 07:44:40;;;;;;;0.15;0.15;;;;;;;-0.25;74.88;98170.41;5014937;28;20075;-70
2023/03/03 07:47:19;;;;;;;0.10;0.10;;;;;;;-0.30;75.06;98171.19;5007951;28;20496;-70
2023/03/03 07:49:48;;;;;;;0.20;0.20;;;;;;;-0.39;75.43;98170.78;4990308;28;20152;-69
2023/03/03 07:52:25;;;;;;;0.20;0.20;;;;;;;-0.38;75.48;98171.56;5016324;28;20049;-70
2023/03/03 07:54:52;;;;;;;0.20;0.20;;;;;;;-0.40;75.07;98171.00;5040567;28;20505;-71
2023/03/03 07:57:25;;;;;;;0.10;0.10;;;;;;;-0.36;75.05;98164.91;5032744;28;20126;-70
2023/03/03 07:59:53;;;;;;;0.10;0.10;;;;;;;-0.37;75.17;98183.94;5017763;28;20056;-70
2023/03/03 08:02:43;;;;;;;0.20;0.20;;;;;;;-0.31;74.80;98177.63;5039703;28;20552;-70
2023/03/03 08:05:26;;;;;;;0.20;0.20;;;;;;;-0.33;74.27;98163.59;5000765;28;20541;-70
2023/03/03 08:07:54;;;;;;;0.43;0.20;;;;;;;-0.29;74.34;98175.50;5011233;28;20505;-71
2023/03/03 08:10:35;;;;;;;0.20;0.20;;;;;;;-0.17;74.79;98176.19;5009170;28;20534;-70
2023/03/03 08:13:16;;;;;;;0.10;0.10;;;;;;;-0.18;73.69;98165.72;5042315;28;20469;-71
2023/03/03 08:15:45;;;;;;;0.10;0.10;;;;;;;-0.18;73.21;98171.88;5008150;28;20056;-69
2023/03/03 08:18:21;;;;;;;0.20;0.20;;;;;;;-0.20;72.74;98184.75;5004393;28;20048;-68
2023/03/03 08:20:49;;;;;;;0.30;0.30;;;;;;;-0.22;73.14;98175.34;5027987;28;20046;-71
2023/03/03 08:23:20;;;;;;;0.57;0.30;;;;;;;-0.12;73.54;98180.06;5025407;28;20539;-71
2023/03/03 08:25:48;;;;;;;0.20;0.20;;;;;;;0.00;72.43;98151.22;5003966;28;20166;-70
2023/03/03 08:28:15;;;;;;;0.20;0.20;;;;;;;0.11;71.94;98173.69;5007163;28;20196;-70
2023/03/03 08:30:42;;;;;;;0.20;0.20;;;;;;;0.42;71.62;98183.00;5043584;28;20053;-71
2023/03/03 08:33:08;;;;;;;0.20;0.20;;;;;;;0.47;71.25;98176.88;5039516;28;20041;-69
2023/03/03 08:35:36;;;;;;;0.20;0.20;;;;;;;0.55;71.08;98178.31;5002919;28;20038;-69
2023/03/03 08:38:02;;;;;;;;;;;;;;;0.52;70.94;98176.13;5009219;28;20145;-69
2023/03/03 08:40:28;;;;;;;0.28;0.28;;;;;;;0.68;70.18;98182.53;5037114;28;19989;-71
2023/03/03 08:42:54;;;;;;;0.20;0.20;;;;;;;0.72;69.18;98180.97;5008215;28;20053;-71
2023/03/03 08:45:20;;;;;;;0.20;0.20;;;;;;;0.52;69.92;98190.38;4993104;28;20425;-71
2023/03/03 08:47:47;;;;;;;0.30;0.30;;;;;;;0.44;70.73;98188.13;5040053;28;20037;-71
2023/03/03 08:50:14;;;;;;;0.20;0.20;;;;;;;0.52;71.35;98189.59;5011570;28;20056;-71
2023/03/03 08:52:41;;;;;;;0.10;0.10;;;;;;;0.66;71.21;98190.84;5002948;28;20042;-71
2023/03/03 08:55:08;;;;;;;0.35;0.30;;;;;;;0.54;71.36;98190.94;5027586;28;20073;-73
2023/03/03 08:57:34;;;;;;;0.20;0.20;;;;;;;0.32;72.52;98182.88;5022815;28;20041;-71
2023/03/03 09:00:01;;;;;;;0.20;0.20;;;;;;;0.34;72.96;98193.38;4997615;28;20052;-69
2023/03/03 09:02:29;;;;;;;0.30;0.30;;;;;;;0.44;73.64;98198.06;5032572;28;20054;-69
2023/03/03 09:04:55;;;;;;;0.20;0.20;;;;;;;0.50;73.89;98200.59;5011098;28;20045;-69
2023/03/03 09:07:21;;;;;;;0.20;0.20;;;;;;;0.64;74.40;98197.53;5017399;28;20504;-69
2023/03/03 09:09:49;;;;;;;0.20;0.20;;;;;;;0.63;75.13;98179.78;5027752;28;20517;-69
2023/03/03 09:12:18;;;;;;;0.20;0.20;;;;;;;0.88;75.31;98208.88;4998449;28;20536;-69
2023/03/03 09:14:44;;;;;;;0.20;0.20;;;;;;;0.93;75.26;98200.06;4996335;28;20054;-69
2023/03/03 09:17:33;;;;;;;0.20;0.20;;;;;;;0.96;75.02;98195.00;4980769;28;20128;-69
2023/03/03 09:20:10;;;;;;;0.20;0.20;;;;;;;0.85;74.98;98195.94;4982591;28;20064;-68
2023/03/03 09:22:37;;;;;;;0.20;0.20;;;;;;;0.94;75.05;98185.53;4987340;28;20046;-69
2023/03/03 09:25:17;;;;;;;0.13;0.13;;;;;;;0.90;74.62;98189.81;5030658;28;20049;-69
2023/03/03 09:27:43;;;;;;;0.20;0.20;;;;;;;0.84;74.55;98200.47;5030772;28;20048;-69
2023/03/03 09:30:29;;;;;;;0.22;0.22;;;;;;;0.96;74.34;98199.56;5028756;28;20049;-69
2023/03/03 09:32:57;;;;;;;0.30;0.30;;;;;;;1.23;73.69;98196.09;5013642;28;20827;-69
2023/03/03 09:35:37;;;;;;;0.25;0.20;;;;;;;1.62;72.72;98201.31;5041924;28;20501;-70
2023/03/03 09:50:39;;;;;;;0.20;0.20;;;;;;;2.20;70.45;98172.97;5032309;28;20425;-73
2023/03/03 09:53:15;;;;;;;;;;;;;;;2.06;70.50;98197.66;5036260;28;20151;-72
2023/03/03 09:55:49;;;;;;;0.10;0.10;;;;;;;1.69;71.28;98196.56;5035513;28;20307;-73
2023/03/03 09:58:44;;;;;;;0.20;0.20;;;;;;;1.42;71.59;98194.66;5030509;28;20389;-73
2023/03/03 10:01:31;;;;;;;0.20;0.20;;;;;;;1.27;72.28;98194.50;5035939;28;20041;-72
2023/03/03 10:04:38;;;;;;;0.10;0.10;;;;;;;1.38;73.06;98196.25;5036697;28;20045;-72
2023/03/03 10:07:20;;;;;;;0.17;0.17;;;;;;;1.32;73.23;98191.88;4994715;28;20050;-73
2023/03/03 10:10:02;;;;;;;0.13;0.13;;;;;;;1.37;72.64;98188.41;4992223;28;20061;-73
2023/03/03 10:12:34;;;;;;;0.20;0.20;;;;;;;1.35;72.78;98194.06;4988563;28;20457;-73
2023/03/03 10:15:16;;;;;;;0.20;0.20;;;;;;;1.45;71.73;98179.06;4979589;28;20081;-73
2023/03/03 10:17:49;;;;;;;0.20;0.20;;;;;;;1.36;71.50;98194.88;4977898;28;20042;-73
2023/03/03 10:20:36;;;;;;;0.20;0.20;;;;;;;1.16;71.27;98193.59;4961596;28;20532;-73
2023/03/03 10:23:09;;;;;;;;;;;;;;;1.03;71.44;98196.66;4990685;28;20533;-73
2023/03/03 10:25:41;;;;;;;0.20;0.20;;;;;;;0.94;71.52;98194.44;4994100;28;20442;-74
2023/03/03 10:28:29;;;;;;;0.20;0.20;;;;;;;0.90;70.91;98184.41;4991153;28;20069;-73
2023/03/03 10:31:08;;;;;;;0.10;0.10;;;;;;;0.97;70.91;98187.72;4982004;28;20072;-73
2023/03/03 10:33:45;;;;;;;0.20;0.20;;;;;;;0.91;70.55;98192.22;4994185;28;20557;-73
2023/03/03 10:36:33;;;;;;;0.20;0.20;;;;;;;0.80;70.69;98172.44;4977767;28;20062;-73
2023/03/03 10:39:17;;;;;;;0.20;0.20;;;;;;;1.03;70.09;98193.97;4976651;28;20090;-72
2023/03/03 10:41:58;;;;;;;0.20;0.20;;;;;;;0.99;69.88;98193.66;4982528;28;20061;-72
2023/03/03 10:44:39;;;;;;;0.20;0.20;;;;;;;1.12;69.52;98195.16;5026601;28;20057;-72
2023/03/03 10:47:43;;;;;;;0.20;0.20;;;;;;;1.32;68.60;98181.09;5032244;28;20072;-72
2023/03/03 10:50:16;;;;;;;0.20;0.20;;;;;;;1.57;67.21;98192.41;5031899;28;20096;-73
2023/03/03 10:52:48;;;;;;;0.15;0.15;;;;;;;1.41;67.02;98203.03;5020635;28;20033;-73
2023/03/03 10:55:31;;;;;;;0.10;0.10;;;;;;;1.24;67.45;98206.59;5008011;28;20053;-73
2023/03/03 10:58:11;;;;;;;0.10;0.10;;;;;;;1.12;68.10;98198.66;5020973;28;20038;-73
2023/03/03 11:00:44;;;;;;;0.10;0.10;;;;;;;0.95;68.08;98193.38;5006074;28;20539;-73
2023/03/03 11:03:48;;;;;;;0.10;0.10;;;;;;;0.89;68.14;98201.63;5021764;28;20057;-73
2023/03/03 11:06:21;;;;;;;0.17;0.17;;;;;;;0.96;68.61;98199.56;5023381;28;20073;-73
2023/03/03 11:08:53;;;;;;;0.10;0.10;;;;;;;0.95;67.80;98206.81;5023009;28;20061;-73
2023/03/03 11:11:29;;;;;;;0.10;0.10;;;;;;;0.85;67.96;98210.19;5009460;28;20071;-72
2023/03/03 11:14:05;;;;;;;0.10;0.10;;;;;;;0.83;67.93;98190.78;5023968;28;20111;-72
2023/03/03 11:16:50;;;;;;;0.10;0.10;;;;;;;0.84;68.44;98197.00;5015646;28;20053;-72
2023/03/03 11:19:33;;;;;;;0.20;0.20;;;;;;;0.98;68.86;98197.41;5016031;28;20064;-72
2023/03/03 11:22:09;;;;;;;0.10;0.10;;;;;;;1.16;67.99;98193.59;5022411;28;20049;-73
2023/03/03 11:24:52;;;;;;;0.20;0.20;;;;;;;1.20;67.30;98196.59;5018175;28;20054;-73
2023/03/03 11:27:41;;;;;;;0.20;0.20;;;;;;;1.22;66.68;98197.16;4997507;28;20092;-73
2023/03/03 11:30:34;;;;;;;0.20;0.20;;;;;;;1.23;66.49;98202.28;5005775;28;20141;-73
2023/03/03 11:33:04;;;;;;;0.10;0.10;;;;;;;1.29;66.61;98207.75;5023862;28;20052;-75
2023/03/03 11:35:39;;;;;;;0.20;0.20;;;;;;;1.31;66.91;98221.75;5021805;28;20191;-72
2023/03/03 11:38:23;;;;;;;0.15;0.15;;;;;;;1.37;65.82;98212.66;5023315;28;20228;-72
2023/03/03 11:40:54;;;;;;;0.15;0.15;;;;;;;1.26;65.49;98188.34;5021222;28;20510;-75
2023/03/03 11:43:27;;;;;;;0.10;0.10;;;;;;;1.13;66.46;98212.94;5017273;28;20495;-74
2023/03/03 11:45:58;;;;;;;0.10;0.10;;;;;;;1.04;66.59;98212.59;5021447;28;20135;-74
2023/03/03 11:48:31;;;;;;;0.10;0.10;;;;;;;0.92;67.58;98204.59;5020244;28;20121;-74
2023/03/03 11:51:02;;;;;;;0.10;0.10;;;;;;;0.91;67.61;98197.59;5018464;28;20053;-73
2023/03/03 11:53:43;;;;;;;0.10;0.10;;;;;;;1.02;67.93;98211.19;5017732;28;20239;-73
2023/03/03 11:56:19;;;;;;;0.10;0.10;;;;;;;1.17;67.44;98206.00;5005643;28;20045;-73
2023/03/03 11:58:57;;;;;;;0.10;0.10;;;;;;;1.08;67.37;98210.19;5021519;28;20065;-73
2023/03/03 12:01:32;;;;;;;0.10;0.10;;;;;;;0.98;67.21;98198.25;5013824;28;20057;-73
2023/03/03 12:04:02;;;;;;;0.20;0.20;;;;;;;1.23;67.02;98206.88;5017862;28;20045;-74
2023/03/03 12:06:37;;;;;;;0.10;0.10;;;;;;;1.32;66.39;98208.03;5026331;28;20049;-74
2023/03/03 12:09:16;;;;;;;0.17;0.17;;;;;;;1.45;66.00;98209.53;5019228;28;20053;-74